createdAt,value
2022-08-27T00:02:09.876Z,100019.88
2022-08-27T00:04:38.726Z,100013.11
2022-08-27T00:07:08.433Z,100015.15
2022-08-27T00:09:37.454Z,100009.09
2022-08-27T00:12:06.150Z,100005.62
2022-08-27T00:14:35.411Z,100000.27
2022-08-27T00:17:05.802Z,100001.48
2022-08-27T00:19:36.184Z,99997.64
2022-08-27T00:22:08.801Z,99997.79
2022-08-27T00:24:38.527Z,99995.78
2022-08-27T00:27:18.085Z,99992.01
2022-08-27T00:29:48.108Z,99988.02
2022-08-27T00:32:17.302Z,99983.35
2022-08-27T00:34:45.662Z,99986.04
2022-08-27T00:37:14.091Z,99980.38
2022-08-27T00:39:42.164Z,99984.64
2022-08-27T00:42:10.572Z,99983.68
2022-08-27T00:44:39.086Z,99985.77
2022-08-27T00:47:17.625Z,99990.54
2022-08-27T00:49:53.333Z,99992.14
2022-08-27T00:52:34.786Z,99993.25
2022-08-27T00:55:20.863Z,99989.25
2022-08-27T00:58:03.206Z,99990.55
2022-08-27T01:00:34.196Z,99998.91
2022-08-27T01:03:02.281Z,99993.19
2022-08-27T01:05:30.673Z,99990.44
2022-08-27T01:08:04.622Z,99989.59
2022-08-27T01:10:32.793Z,99987.70
2022-08-27T01:13:00.976Z,99984.77
2022-08-27T01:15:30.709Z,99985.65
2022-08-27T01:17:59.943Z,99980.81
2022-08-27T01:20:35.242Z,99977.17
2022-08-27T01:23:25.637Z,99978.05
2022-08-27T01:25:53.665Z,99979.69
2022-08-27T01:28:22.798Z,99976.02
2022-08-27T01:30:52.012Z,99975.39
2022-08-27T01:33:22.040Z,99974.38
2022-08-27T01:35:52.669Z,99973.83
2022-08-27T01:38:30.626Z,99969.66
2022-08-27T01:41:01.245Z,99971.48
2022-08-27T01:43:31.560Z,99968.02
2022-08-27T01:45:59.670Z,99968.95
2022-08-27T01:48:27.672Z,99971.67
2022-08-27T01:50:56.697Z,99970.11
2022-08-27T01:53:27.138Z,99970.67
2022-08-27T01:55:56.394Z,99970.27
2022-08-27T01:58:30.744Z,99970.85
2022-08-27T02:01:03.461Z,99970.91
2022-08-27T02:03:32.820Z,99968.23
2022-08-27T02:06:06.307Z,99967.83
2022-08-27T02:08:34.562Z,99967.96
2022-08-27T02:11:03.001Z,99967.80
2022-08-27T02:13:31.001Z,99964.80
2022-08-27T02:15:58.968Z,99964.77
2022-08-27T02:18:27.058Z,99965.53
2022-08-27T02:20:55.037Z,99969.31
2022-08-27T02:23:23.102Z,99966.83
2022-08-27T02:25:51.352Z,99967.17
2022-08-27T02:28:19.446Z,99963.38
2022-08-27T02:30:47.392Z,99963.36
2022-08-27T02:33:15.803Z,99968.80
2022-08-27T02:35:44.530Z,99966.35
2022-08-27T02:38:14.299Z,99967.96
2022-08-27T02:40:42.964Z,99970.38
2022-08-27T02:43:15.998Z,99968.95
2022-08-27T02:45:52.145Z,99967.36
2022-08-27T02:48:20.901Z,99974.14
2022-08-27T02:50:48.932Z,99973.61
2022-08-27T02:53:19.077Z,99972.32
2022-08-27T02:55:47.941Z,99974.50
2022-08-27T02:58:17.622Z,99974.30
2022-08-27T03:00:45.891Z,99975.00
2022-08-27T03:03:14.082Z,99971.67
2022-08-27T03:05:42.417Z,99972.66
2022-08-27T03:08:10.842Z,99972.91
2022-08-27T03:10:39.005Z,99971.77
2022-08-27T03:13:07.092Z,99969.40
2022-08-27T03:15:35.073Z,99968.86
2022-08-27T03:18:22.031Z,99970.33
2022-08-27T03:20:55.050Z,99967.14
2022-08-27T03:23:25.615Z,99967.67
2022-08-27T03:26:03.022Z,99968.91
2022-08-27T03:28:35.794Z,99969.65
2022-08-27T03:31:07.868Z,99966.42
2022-08-27T03:33:38.944Z,99960.67
2022-08-27T03:36:09.185Z,99962.86
2022-08-27T03:38:38.250Z,99961.86
2022-08-27T03:41:07.525Z,99957.50
2022-08-27T03:43:35.833Z,99953.39
2022-08-27T03:46:03.939Z,99953.02
2022-08-27T03:48:32.950Z,99951.14
2022-08-27T03:51:06.852Z,99958.40
2022-08-27T03:53:36.667Z,99953.77
2022-08-27T03:56:06.510Z,99960.52
2022-08-27T03:58:36.231Z,99956.98
2022-08-27T04:01:06.358Z,99956.25
2022-08-27T04:03:35.518Z,99959.81
2022-08-27T04:06:04.200Z,99961.29
2022-08-27T04:08:32.139Z,99960.68
2022-08-27T04:11:00.330Z,99958.08
2022-08-27T04:13:28.265Z,99960.54
2022-08-27T04:15:57.187Z,99962.95
2022-08-27T04:18:25.277Z,99964.32
2022-08-27T04:20:53.262Z,99958.27
2022-08-27T04:23:21.945Z,99956.52
2022-08-27T04:25:50.757Z,99955.86
2022-08-27T04:28:18.818Z,99955.73
2022-08-27T04:30:47.491Z,99960.70
2022-08-27T04:33:15.574Z,99963.03
2022-08-27T04:35:43.799Z,99961.45
2022-08-27T04:38:12.473Z,99966.95
2022-08-27T04:40:59.104Z,99963.60
2022-08-27T04:43:28.965Z,99967.16
2022-08-27T04:45:57.397Z,99965.45
2022-08-27T04:48:25.999Z,99965.30
2022-08-27T04:50:54.101Z,99960.73
2022-08-27T04:53:22.535Z,99961.87
2022-08-27T04:55:53.625Z,99963.13
2022-08-27T04:58:23.197Z,99963.77
2022-08-27T05:00:54.426Z,99964.42
2022-08-27T05:03:24.431Z,99968.05
2022-08-27T05:05:54.492Z,99969.94
2022-08-27T05:08:22.670Z,99973.42
2022-08-27T05:10:51.602Z,99973.20
2022-08-27T05:13:23.889Z,99976.83
2022-08-27T05:16:00.379Z,99980.70
2022-08-27T05:18:28.632Z,99978.80
2022-08-27T05:20:57.572Z,99985.80
2022-08-27T05:23:28.318Z,99980.05
2022-08-27T05:25:57.752Z,99979.13
2022-08-27T05:28:28.303Z,99979.34
2022-08-27T05:31:05.395Z,99979.34
2022-08-27T05:33:34.395Z,99985.05
2022-08-27T05:36:02.570Z,99983.02
2022-08-27T05:38:31.455Z,99982.06
2022-08-27T05:41:21.140Z,99985.30
2022-08-27T05:43:50.520Z,99987.33
2022-08-27T05:46:22.557Z,99987.17
2022-08-27T05:49:11.358Z,99987.05
2022-08-27T05:51:39.312Z,99987.68
2022-08-27T05:54:11.601Z,99989.30
2022-08-27T05:56:42.089Z,99996.67
2022-08-27T05:59:28.903Z,99999.35
2022-08-27T06:01:58.912Z,99995.38
2022-08-27T06:04:30.321Z,100001.14
2022-08-27T06:06:58.299Z,99998.50
2022-08-27T06:09:29.665Z,100001.27
2022-08-27T06:12:00.527Z,99996.98
2022-08-27T06:14:28.959Z,99999.03
2022-08-27T06:16:57.266Z,99999.20
2022-08-27T06:19:25.322Z,99996.45
2022-08-27T06:22:01.280Z,99996.67
2022-08-27T06:24:41.099Z,99998.21
2022-08-27T06:27:16.441Z,99995.09
2022-08-27T06:29:45.002Z,99992.91
2022-08-27T06:32:15.080Z,99995.02
2022-08-27T06:34:43.110Z,99996.92
2022-08-27T06:37:11.241Z,99999.14
2022-08-27T06:39:40.549Z,99999.92
2022-08-27T06:42:12.148Z,100002.06
2022-08-27T06:44:40.587Z,100002.81
2022-08-27T06:47:08.515Z,99998.85
2022-08-27T06:49:40.343Z,99998.36
2022-08-27T06:52:08.435Z,100002.09
2022-08-27T06:54:37.602Z,99997.52
2022-08-27T06:57:05.737Z,100000.51
2022-08-27T06:59:33.671Z,100000.80
2022-08-27T07:02:01.751Z,100001.29
2022-08-27T07:04:32.240Z,100003.77
2022-08-27T07:07:02.708Z,100002.48
2022-08-27T07:09:32.756Z,100000.29
2022-08-27T07:12:01.786Z,100000.02
2022-08-27T07:14:34.267Z,99999.64
2022-08-27T07:17:08.194Z,99997.34
2022-08-27T07:19:40.693Z,99996.34
2022-08-27T07:22:09.863Z,99991.70
2022-08-27T07:24:38.753Z,99989.20
2022-08-27T07:27:10.452Z,99988.30
2022-08-27T07:29:38.566Z,99990.58
2022-08-27T07:32:06.941Z,99989.61
2022-08-27T07:34:35.466Z,99990.77
2022-08-27T07:37:03.582Z,99988.87
2022-08-27T07:39:41.703Z,99986.98
2022-08-27T07:42:48.740Z,99990.98
2022-08-27T07:45:17.114Z,99994.27
2022-08-27T07:47:45.315Z,99993.85
2022-08-27T07:50:14.218Z,99998.24
2022-08-27T07:52:44.422Z,100000.82
2022-08-27T07:55:13.766Z,99998.41
2022-08-27T07:57:42.342Z,100003.96
2022-08-27T08:00:11.483Z,100003.98
2022-08-27T08:02:42.361Z,100007.92
2022-08-27T08:05:13.368Z,100006.75
2022-08-27T08:07:41.826Z,100005.40
2022-08-27T08:10:12.289Z,100010.14
2022-08-27T08:12:41.242Z,100007.44
2022-08-27T08:15:11.491Z,100008.39
2022-08-27T08:17:39.912Z,100004.45
2022-08-27T08:20:23.757Z,100005.81
2022-08-27T08:22:55.852Z,100007.08
2022-08-27T08:25:24.078Z,100007.07
2022-08-27T08:27:52.530Z,100009.14
2022-08-27T08:30:20.876Z,100008.12
2022-08-27T08:32:49.068Z,100007.79
2022-08-27T08:35:18.483Z,100003.92
2022-08-27T08:37:47.356Z,100006.73
2022-08-27T08:40:43.407Z,100006.89
2022-08-27T08:43:25.845Z,100009.30
2022-08-27T08:45:56.652Z,100013.40
2022-08-27T08:48:30.000Z,100018.11
2022-08-27T08:51:05.779Z,100012.98
2022-08-27T08:53:38.841Z,100015.90
2022-08-27T08:56:12.629Z,100020.63
2022-08-27T08:58:59.054Z,100020.39
2022-08-27T09:01:28.150Z,100012.90
2022-08-27T09:04:03.735Z,100016.77
2022-08-27T09:06:52.492Z,100013.02
2022-08-27T09:09:27.820Z,100010.89
2022-08-27T09:12:05.942Z,100016.09
2022-08-27T09:14:41.714Z,100018.61
2022-08-27T09:17:14.988Z,100012.88
2022-08-27T09:19:43.663Z,100011.56
2022-08-27T09:22:30.259Z,100010.95
2022-08-27T09:25:22.813Z,100007.95
2022-08-27T09:27:57.780Z,100020.04
2022-08-27T09:30:31.748Z,100013.43
2022-08-27T09:33:04.607Z,100007.73
2022-08-27T09:35:45.161Z,100005.14
2022-08-27T09:38:29.618Z,100002.93
2022-08-27T09:41:02.062Z,100006.98
2022-08-27T09:43:32.266Z,100006.92
2022-08-27T09:46:05.677Z,100010.15
2022-08-27T09:48:37.827Z,100008.63
2022-08-27T09:51:15.127Z,100004.03
2022-08-27T09:53:56.161Z,100003.14
2022-08-27T09:56:53.933Z,100005.20
2022-08-27T09:59:50.475Z,100005.86
2022-08-27T10:02:22.551Z,100004.17
2022-08-27T10:04:53.508Z,100002.45
2022-08-27T10:07:54.286Z,99997.64
2022-08-27T10:10:30.635Z,100002.40
2022-08-27T10:13:13.432Z,100001.35
2022-08-27T10:15:48.967Z,100004.35
2022-08-27T10:18:48.140Z,99997.92
2022-08-27T10:21:30.714Z,99997.73
2022-08-27T10:24:20.252Z,99997.54
2022-08-27T10:27:14.444Z,99995.73
2022-08-27T10:30:01.294Z,99998.97
2022-08-27T10:33:06.822Z,99990.64
2022-08-27T10:36:04.637Z,99990.77
2022-08-27T10:38:53.591Z,99991.94
2022-08-27T10:42:14.261Z,99992.14
2022-08-27T10:45:15.945Z,99990.36
2022-08-27T10:48:30.942Z,99995.19
2022-08-27T10:51:09.334Z,99990.20
2022-08-27T10:53:48.342Z,99991.73
2022-08-27T10:56:32.210Z,99989.02
2022-08-27T10:59:18.006Z,99989.74
2022-08-27T11:02:00.462Z,99986.27
2022-08-27T11:04:35.708Z,99986.52
2022-08-27T11:07:24.652Z,99984.33
2022-08-27T11:10:13.765Z,99979.17
2022-08-27T11:12:47.175Z,99981.59
2022-08-27T11:15:23.542Z,99981.36
2022-08-27T11:18:21.201Z,99988.46
2022-08-27T11:21:03.443Z,99990.17
2022-08-27T11:23:47.913Z,99985.42
2022-08-27T11:26:16.235Z,99980.86
2022-08-27T11:28:51.660Z,99983.77
2022-08-27T11:31:34.209Z,99984.40
2022-08-27T11:34:02.822Z,99974.12
2022-08-27T11:36:53.252Z,99970.78
2022-08-27T11:39:37.925Z,99970.44
2022-08-27T11:42:17.864Z,99972.35
2022-08-27T11:44:49.703Z,99974.52
2022-08-27T11:47:24.804Z,99974.34
2022-08-27T11:50:01.912Z,99972.00
2022-08-27T11:52:40.216Z,99971.45
2022-08-27T11:55:20.305Z,99970.88
2022-08-27T11:58:02.622Z,99969.86
2022-08-27T12:00:38.832Z,99966.02
2022-08-27T12:03:19.109Z,99972.44
2022-08-27T12:05:53.336Z,99978.30
2022-08-27T12:08:24.329Z,99974.88
2022-08-27T12:11:24.790Z,99968.52
2022-08-27T12:14:14.812Z,99966.06
2022-08-27T12:17:33.427Z,99961.37
2022-08-27T12:20:26.241Z,99961.45
2022-08-27T12:23:32.986Z,99953.46
2022-08-27T12:26:32.936Z,99951.62
2022-08-27T12:29:19.424Z,99945.73
2022-08-27T12:32:00.524Z,99944.39
2022-08-27T12:34:29.877Z,99943.23
2022-08-27T12:36:57.921Z,99947.40
2022-08-27T12:39:30.134Z,99946.79
2022-08-27T12:41:58.237Z,99939.23
2022-08-27T12:44:29.118Z,99935.15
2022-08-27T12:47:05.527Z,99932.96
2022-08-27T12:49:52.621Z,99936.52
2022-08-27T12:52:56.925Z,99939.11
2022-08-27T12:55:37.554Z,99940.08
2022-08-27T12:58:16.031Z,99937.08
2022-08-27T13:01:11.797Z,99940.89
2022-08-27T13:03:44.605Z,99939.08
2022-08-27T13:06:34.711Z,99943.98
2022-08-27T13:09:07.520Z,99946.52
2022-08-27T13:11:48.258Z,99943.52
2022-08-27T13:14:20.372Z,99942.09
2022-08-27T13:16:57.661Z,99936.00
2022-08-27T13:19:30.819Z,99935.81
2022-08-27T13:22:05.802Z,99923.58
2022-08-27T13:24:35.739Z,99919.21
2022-08-27T13:27:06.128Z,99923.02
2022-08-27T13:29:34.851Z,99924.73
2022-08-27T13:32:05.884Z,99924.55
2022-08-27T13:34:38.925Z,99919.83
2022-08-27T13:37:23.365Z,99918.57
2022-08-27T13:39:57.159Z,99915.73
2022-08-27T13:42:28.229Z,99919.69
2022-08-27T13:45:06.337Z,99916.08
2022-08-27T13:47:45.606Z,99913.60
2022-08-27T13:50:20.840Z,99912.74
2022-08-27T13:53:09.039Z,99910.30
2022-08-27T13:55:47.995Z,99908.48
2022-08-27T13:58:23.897Z,99901.76
2022-08-27T14:00:52.420Z,99898.66
2022-08-27T14:03:33.056Z,99899.61
2022-08-27T14:06:02.644Z,99903.86
2022-08-27T14:08:34.466Z,99907.32
2022-08-27T14:11:07.232Z,99908.67
2022-08-27T14:13:45.829Z,99916.83
2022-08-27T14:16:24.392Z,99920.42
2022-08-27T14:19:06.955Z,99919.38
2022-08-27T14:21:57.173Z,99910.41
2022-08-27T14:24:26.501Z,99904.88
2022-08-27T14:27:04.177Z,99899.31
2022-08-27T14:29:32.291Z,99899.41
2022-08-27T14:32:00.292Z,99893.70
2022-08-27T14:34:29.042Z,99890.23
2022-08-27T14:36:57.357Z,99884.56
2022-08-27T14:39:26.697Z,99886.08
2022-08-27T14:41:56.455Z,99886.07
2022-08-27T14:44:25.913Z,99884.92
2022-08-27T14:46:55.023Z,99883.90
2022-08-27T14:49:34.855Z,99880.52
2022-08-27T14:52:05.564Z,99881.63
2022-08-27T14:54:34.663Z,99879.15
2022-08-27T14:57:03.953Z,99875.38
2022-08-27T14:59:33.247Z,99875.78
2022-08-27T15:02:04.918Z,99875.86
2022-08-27T15:04:33.334Z,99886.33
2022-08-27T15:07:01.785Z,99887.09
2022-08-27T15:09:30.145Z,99891.10
2022-08-27T15:11:58.545Z,99898.14
2022-08-27T15:14:32.937Z,99906.43
2022-08-27T15:17:01.426Z,99902.77
2022-08-27T15:19:31.013Z,99904.83
2022-08-27T15:22:23.526Z,99903.90
2022-08-27T15:24:56.491Z,99903.57
2022-08-27T15:27:30.119Z,99901.68
2022-08-27T15:30:10.110Z,99909.91
2022-08-27T15:32:42.107Z,99906.56
2022-08-27T15:35:15.727Z,99908.17
2022-08-27T15:37:45.456Z,99904.96
2022-08-27T15:40:16.769Z,99900.86
2022-08-27T15:42:45.375Z,99898.17
2022-08-27T15:45:14.792Z,99899.92
2022-08-27T15:47:43.225Z,99902.98
2022-08-27T15:50:11.620Z,99894.09
2022-08-27T15:52:41.862Z,99893.91
2022-08-27T15:55:20.298Z,99888.04
2022-08-27T15:57:48.734Z,99883.81
2022-08-27T16:00:17.865Z,99878.88
2022-08-27T16:02:46.963Z,99878.65
2022-08-27T16:05:16.850Z,99873.34
2022-08-27T16:07:45.255Z,99870.41
2022-08-27T16:10:17.075Z,99876.10
2022-08-27T16:12:45.843Z,99875.95
2022-08-27T16:15:14.250Z,99874.13
2022-08-27T16:17:42.625Z,99870.58
2022-08-27T16:20:13.795Z,99872.89
2022-08-27T16:22:42.315Z,99874.08
2022-08-27T16:25:16.500Z,99873.16
2022-08-27T16:27:47.800Z,99869.12
2022-08-27T16:30:15.745Z,99871.55
2022-08-27T16:32:49.038Z,99868.23
2022-08-27T16:35:17.388Z,99864.39
2022-08-27T16:37:45.809Z,99860.34
2022-08-27T16:40:15.789Z,99861.66
2022-08-27T16:42:47.895Z,99860.05
2022-08-27T16:45:17.951Z,99857.00
2022-08-27T16:48:04.258Z,99855.52
2022-08-27T16:50:35.344Z,99860.38
2022-08-27T16:53:09.168Z,99849.66
2022-08-27T16:55:40.530Z,99848.73
2022-08-27T16:58:16.065Z,99849.58
2022-08-27T17:00:46.138Z,99847.92
2022-08-27T17:03:14.305Z,99849.79
2022-08-27T17:05:42.795Z,99847.69
2022-08-27T17:08:11.910Z,99845.91
2022-08-27T17:10:47.993Z,99846.92
2022-08-27T17:13:22.446Z,99847.66
2022-08-27T17:15:57.067Z,99849.02
2022-08-27T17:18:27.846Z,99851.88
2022-08-27T17:20:59.162Z,99850.60
2022-08-27T17:23:39.895Z,99856.54
2022-08-27T17:26:11.899Z,99861.86
2022-08-27T17:28:41.732Z,99864.42
2022-08-27T17:31:14.647Z,99868.10
2022-08-27T17:33:48.430Z,99872.27
2022-08-27T17:36:16.988Z,99870.73
2022-08-27T17:38:45.569Z,99873.88
2022-08-27T17:41:34.322Z,99873.80
2022-08-27T17:44:10.403Z,99876.58
2022-08-27T17:46:39.066Z,99875.05
2022-08-27T17:49:06.949Z,99874.90
2022-08-27T17:51:36.199Z,99874.42
2022-08-27T17:54:06.216Z,99878.36
2022-08-27T17:56:34.384Z,99876.36
2022-08-27T17:59:02.321Z,99885.47
2022-08-27T18:01:32.493Z,99886.93
2022-08-27T18:04:00.582Z,99887.27
2022-08-27T18:06:28.872Z,99888.98
2022-08-27T18:08:57.136Z,99890.45
2022-08-27T18:11:26.119Z,99890.16
2022-08-27T18:14:01.538Z,99898.52
2022-08-27T18:16:32.993Z,99897.87
2022-08-27T18:19:06.963Z,99899.27
2022-08-27T18:21:35.675Z,99896.16
2022-08-27T18:24:04.123Z,99898.29
2022-08-27T18:26:33.930Z,99896.05
2022-08-27T18:29:02.123Z,99894.97
2022-08-27T18:31:32.134Z,99899.63
2022-08-27T18:34:00.775Z,99903.41
2022-08-27T18:36:29.322Z,99900.20
2022-08-27T18:39:00.077Z,99906.60
2022-08-27T18:41:31.478Z,99907.03
2022-08-27T18:44:00.122Z,99912.95
2022-08-27T18:46:28.333Z,99918.35
2022-08-27T18:48:56.318Z,99918.88
2022-08-27T18:51:24.289Z,99919.39
2022-08-27T18:53:52.478Z,99923.54
2022-08-27T18:56:20.858Z,99926.08
2022-08-27T18:58:49.014Z,99926.65
2022-08-27T19:01:25.671Z,99930.83
2022-08-27T19:03:57.096Z,99932.89
2022-08-27T19:06:25.815Z,99935.74
2022-08-27T19:08:53.816Z,99939.13
2022-08-27T19:11:21.997Z,99939.56
2022-08-27T19:13:51.007Z,99940.17
2022-08-27T19:16:39.287Z,99940.88
2022-08-27T19:19:07.639Z,99943.77
2022-08-27T19:21:35.676Z,99941.90
2022-08-27T19:24:04.519Z,99944.27
2022-08-27T19:26:33.108Z,99945.54
2022-08-27T19:29:01.248Z,99943.33
2022-08-27T19:31:31.693Z,99944.91
2022-08-27T19:34:00.573Z,99945.38
2022-08-27T19:36:28.618Z,99938.66
2022-08-27T19:38:56.835Z,99940.35
2022-08-27T19:41:27.720Z,99941.83
2022-08-27T19:43:56.165Z,99943.20
2022-08-27T19:46:26.334Z,99943.00
2022-08-27T19:48:55.740Z,99945.46
2022-08-27T19:51:23.724Z,99943.83
2022-08-27T19:53:51.739Z,99944.61
2022-08-27T19:56:19.717Z,99943.88
2022-08-27T19:58:47.785Z,99943.19
2022-08-27T20:01:16.253Z,99944.50
2022-08-27T20:03:44.539Z,99947.85
2022-08-27T20:06:13.189Z,99949.91
2022-08-27T20:08:41.102Z,99947.70
2022-08-27T20:11:09.737Z,99947.27
2022-08-27T20:13:37.998Z,99947.94
2022-08-27T20:16:16.803Z,99951.21
2022-08-27T20:18:46.474Z,99951.00
2022-08-27T20:21:14.495Z,99949.96
2022-08-27T20:23:42.397Z,99948.66
2022-08-27T20:26:10.368Z,99949.95
2022-08-27T20:28:40.285Z,99946.37
2022-08-27T20:31:08.875Z,99947.35
2022-08-27T20:33:37.034Z,99951.07
2022-08-27T20:36:06.511Z,99949.88
2022-08-27T20:38:35.064Z,99947.88
2022-08-27T20:41:03.452Z,99946.85
2022-08-27T20:43:31.591Z,99947.79
2022-08-27T20:46:00.273Z,99949.58
2022-08-27T20:48:28.595Z,99947.64
2022-08-27T20:50:56.652Z,99951.05
2022-08-27T20:53:24.959Z,99951.95
2022-08-27T20:55:56.758Z,99948.76
2022-08-27T20:58:44.011Z,99944.01
2022-08-27T21:01:12.234Z,99944.89
2022-08-27T21:03:40.534Z,99942.43
2022-08-27T21:06:09.209Z,99939.98
2022-08-27T21:08:39.664Z,99938.08
2022-08-27T21:11:15.566Z,99939.69
2022-08-27T21:13:55.603Z,99937.38
2022-08-27T21:16:25.718Z,99940.05
2022-08-27T21:18:54.125Z,99937.38
2022-08-27T21:21:22.869Z,99939.16
2022-08-27T21:23:50.945Z,99933.77
2022-08-27T21:26:20.413Z,99930.42
2022-08-27T21:28:48.494Z,99929.22
2022-08-27T21:31:25.262Z,99929.73
2022-08-27T21:33:53.509Z,99929.31
2022-08-27T21:36:21.827Z,99931.11
2022-08-27T21:38:50.433Z,99934.66
2022-08-27T21:41:18.409Z,99934.16
2022-08-27T21:43:46.416Z,99931.61
2022-08-27T21:46:14.665Z,99931.15
2022-08-27T21:48:42.625Z,99930.94
2022-08-27T21:51:13.842Z,99928.38
2022-08-27T21:53:43.159Z,99929.61
2022-08-27T21:56:12.257Z,99929.14
2022-08-27T21:58:40.830Z,99931.13
2022-08-27T22:01:08.955Z,99929.89
2022-08-27T22:03:37.048Z,99930.77
2022-08-27T22:06:08.596Z,99929.23
2022-08-27T22:08:36.459Z,99929.79
2022-08-27T22:11:05.071Z,99925.38
2022-08-27T22:13:33.669Z,99928.94
2022-08-27T22:16:02.185Z,99921.98
2022-08-27T22:18:30.541Z,99921.30
2022-08-27T22:21:00.439Z,99917.86
2022-08-27T22:23:28.543Z,99918.89
2022-08-27T22:25:56.688Z,99921.83
2022-08-27T22:28:24.603Z,99919.87
2022-08-27T22:30:52.616Z,99922.10
2022-08-27T22:33:20.859Z,99914.88
2022-08-27T22:35:48.875Z,99916.30
2022-08-27T22:38:16.817Z,99918.27
2022-08-27T22:40:44.819Z,99913.75
2022-08-27T22:43:14.595Z,99914.77
2022-08-27T22:45:42.576Z,99913.66
2022-08-27T22:48:10.982Z,99913.45
2022-08-27T22:50:39.154Z,99913.48
2022-08-27T22:53:07.456Z,99915.27
2022-08-27T22:55:36.287Z,99911.27
2022-08-27T22:58:04.510Z,99909.12
2022-08-27T23:00:36.300Z,99906.02
2022-08-27T23:03:07.624Z,99901.80
2022-08-27T23:05:40.482Z,99901.36
2022-08-27T23:08:12.247Z,99900.27
2022-08-27T23:10:42.615Z,99900.76
2022-08-27T23:13:12.318Z,99897.91
2022-08-27T23:15:41.348Z,99900.05
2022-08-27T23:18:09.469Z,99900.64
2022-08-27T23:20:37.531Z,99895.43
2022-08-27T23:23:08.147Z,99897.84
2022-08-27T23:25:54.816Z,99898.50
2022-08-27T23:28:23.651Z,99893.42
2022-08-27T23:30:51.986Z,99895.41
2022-08-27T23:33:20.503Z,99893.92
2022-08-27T23:35:51.594Z,99894.23
2022-08-27T23:38:21.431Z,99887.52
2022-08-27T23:40:50.575Z,99886.85
2022-08-27T23:43:19.713Z,99889.95
2022-08-27T23:45:49.346Z,99890.70
2022-08-27T23:48:17.254Z,99892.08
2022-08-27T23:50:45.972Z,99891.06
2022-08-27T23:53:14.843Z,99892.96
2022-08-27T23:55:42.866Z,99894.77
2022-08-27T23:58:12.273Z,99895.81
